createdAt,value
2023-01-23T00:01:08.597Z,6.13
2023-01-23T00:03:35.391Z,6.30
2023-01-23T00:06:08.900Z,9.33
2023-01-23T00:08:36.197Z,5.93
2023-01-23T00:11:07.554Z,8.17
2023-01-23T00:13:35.265Z,7.00
2023-01-23T00:16:11.467Z,7.53
2023-01-23T00:18:38.492Z,5.33
2023-01-23T00:21:12.944Z,7.53
2023-01-23T00:23:43.060Z,5.53
2023-01-23T00:26:13.325Z,6.10
2023-01-23T00:28:40.098Z,7.50
2023-01-23T00:31:13.046Z,4.50
2023-01-23T00:33:40.493Z,7.20
2023-01-23T00:36:08.260Z,6.23
2023-01-23T00:38:35.325Z,5.87
2023-01-23T00:41:02.356Z,6.30
2023-01-23T00:43:30.514Z,8.53
2023-01-23T00:45:57.901Z,6.10
2023-01-23T00:48:25.130Z,7.60
2023-01-23T00:50:52.109Z,5.20
2023-01-23T00:53:19.202Z,6.50
2023-01-23T00:55:46.010Z,5.13
2023-01-23T00:58:12.790Z,6.50
2023-01-23T01:00:40.176Z,9.07
2023-01-23T01:03:07.641Z,7.80
2023-01-23T01:05:34.959Z,6.20
2023-01-23T01:08:01.708Z,4.90
2023-01-23T01:10:29.570Z,6.33
2023-01-23T01:12:58.054Z,7.00
2023-01-23T01:15:25.891Z,7.43
2023-01-23T01:17:55.514Z,5.50
2023-01-23T01:20:23.873Z,8.47
2023-01-23T01:22:50.926Z,6.30
2023-01-23T01:25:18.113Z,10.13
2023-01-23T01:27:45.091Z,5.90
2023-01-23T01:30:12.638Z,5.63
2023-01-23T01:32:41.462Z,6.20
2023-01-23T01:35:09.559Z,9.60
2023-01-23T01:37:38.396Z,6.20
2023-01-23T01:40:12.092Z,5.93
2023-01-23T01:42:40.770Z,5.70
2023-01-23T01:45:28.347Z,5.57
2023-01-23T01:47:55.280Z,4.73
2023-01-23T01:50:22.275Z,9.10
2023-01-23T01:52:49.064Z,7.83
2023-01-23T01:55:16.045Z,6.07
2023-01-23T01:57:45.290Z,7.40
2023-01-23T02:00:16.017Z,6.23
2023-01-23T02:02:47.148Z,8.03
2023-01-23T02:05:17.514Z,6.17
2023-01-23T02:08:21.732Z,9.57
2023-01-23T02:10:49.168Z,5.50
2023-01-23T02:13:35.953Z,5.73
2023-01-23T02:16:12.345Z,7.13
2023-01-23T02:18:44.626Z,7.03
2023-01-23T02:21:13.447Z,7.30
2023-01-23T02:24:28.184Z,7.70
2023-01-23T02:26:54.976Z,7.13
2023-01-23T02:29:21.731Z,7.97
2023-01-23T02:31:51.827Z,8.17
2023-01-23T02:34:18.938Z,7.27
2023-01-23T02:36:48.622Z,8.60
2023-01-23T02:39:20.570Z,7.70
2023-01-23T02:41:49.890Z,6.60
2023-01-23T02:44:29.577Z,5.10
2023-01-23T02:46:59.488Z,4.93
2023-01-23T02:49:26.591Z,10.37
2023-01-23T02:51:55.198Z,9.00
2023-01-23T02:54:23.400Z,6.37
2023-01-23T02:56:50.462Z,5.67
2023-01-23T02:59:35.991Z,6.13
2023-01-23T03:02:04.078Z,8.83
2023-01-23T03:04:31.152Z,8.23
2023-01-23T03:06:59.353Z,7.73
2023-01-23T03:09:26.625Z,7.70
2023-01-23T03:11:53.409Z,6.50
2023-01-23T03:14:21.954Z,5.07
2023-01-23T03:16:51.473Z,5.47
2023-01-23T03:19:20.048Z,7.20
2023-01-23T03:21:46.801Z,4.63
2023-01-23T03:24:15.283Z,6.47
2023-01-23T03:26:43.947Z,6.43
2023-01-23T03:29:38.421Z,9.93
2023-01-23T03:32:05.755Z,4.77
2023-01-23T03:34:33.140Z,7.30
2023-01-23T03:37:01.229Z,9.43
2023-01-23T03:39:46.311Z,9.73
2023-01-23T03:42:13.113Z,8.23
2023-01-23T03:44:40.300Z,5.77
2023-01-23T03:47:07.486Z,6.37
2023-01-23T03:49:34.505Z,6.57
2023-01-23T03:52:01.203Z,6.77
2023-01-23T03:54:27.908Z,6.10
2023-01-23T03:56:54.864Z,8.17
2023-01-23T03:59:21.699Z,5.67
2023-01-23T04:01:48.332Z,5.60
2023-01-23T04:04:15.456Z,7.50
2023-01-23T04:06:42.091Z,6.53
2023-01-23T04:09:08.885Z,6.17
2023-01-23T04:11:35.519Z,6.83
2023-01-23T04:14:02.259Z,6.63
2023-01-23T04:16:29.055Z,6.90
2023-01-23T04:18:55.867Z,5.07
2023-01-23T04:21:22.669Z,5.33
2023-01-23T04:23:49.805Z,6.63
2023-01-23T04:26:16.512Z,7.10
2023-01-23T04:28:43.232Z,5.93
2023-01-23T04:31:10.170Z,5.63
2023-01-23T04:33:36.991Z,7.97
2023-01-23T04:36:05.983Z,4.80
2023-01-23T04:38:33.918Z,6.30
2023-01-23T04:41:00.869Z,6.77
2023-01-23T04:43:27.722Z,7.07
2023-01-23T04:45:56.247Z,7.07
2023-01-23T04:48:23.838Z,10.20
2023-01-23T04:50:51.332Z,7.30
2023-01-23T04:53:18.660Z,6.33
2023-01-23T04:55:49.171Z,8.93
2023-01-23T04:58:18.407Z,7.60
2023-01-23T05:00:45.853Z,8.00
2023-01-23T05:03:13.191Z,9.27
2023-01-23T05:05:39.931Z,9.80
2023-01-23T05:08:06.734Z,11.47
2023-01-23T05:10:33.518Z,8.57
2023-01-23T05:13:11.638Z,10.43
2023-01-23T05:15:38.670Z,8.27
2023-01-23T05:18:05.445Z,10.13
2023-01-23T05:20:32.123Z,9.13
2023-01-23T05:22:58.839Z,10.90
2023-01-23T05:25:28.097Z,10.90
2023-01-23T05:27:55.110Z,9.47
2023-01-23T05:30:23.466Z,8.67
2023-01-23T05:32:50.574Z,12.37
2023-01-23T05:35:17.709Z,11.30
2023-01-23T05:37:48.156Z,11.20
2023-01-23T05:40:14.859Z,11.80
2023-01-23T05:42:41.595Z,11.93
2023-01-23T05:45:08.576Z,12.83
2023-01-23T05:47:35.781Z,12.47
2023-01-23T05:50:02.532Z,11.93
2023-01-23T05:52:29.241Z,14.77
2023-01-23T05:54:55.985Z,12.63
2023-01-23T05:57:22.855Z,11.27
2023-01-23T05:59:49.711Z,12.37
2023-01-23T06:02:17.323Z,16.43
2023-01-23T06:04:46.386Z,12.77
2023-01-23T06:07:14.857Z,15.97
2023-01-23T06:09:41.821Z,13.30
2023-01-23T06:12:09.971Z,12.53
2023-01-23T06:14:36.749Z,14.20
2023-01-23T06:17:04.449Z,14.23
2023-01-23T06:19:31.176Z,13.87
2023-01-23T06:21:58.052Z,14.13
2023-01-23T06:24:24.862Z,15.13
2023-01-23T06:26:51.543Z,13.40
2023-01-23T06:29:18.284Z,13.83
2023-01-23T06:31:46.198Z,15.40
2023-01-23T06:34:13.513Z,15.73
2023-01-23T06:36:40.573Z,13.43
2023-01-23T06:39:08.171Z,15.13
2023-01-23T06:41:35.037Z,15.73
2023-01-23T06:44:01.822Z,14.90
2023-01-23T06:46:28.560Z,14.13
2023-01-23T06:48:55.478Z,15.70
2023-01-23T06:51:22.339Z,12.67
2023-01-23T06:53:49.112Z,12.83
2023-01-23T06:56:15.994Z,14.67
2023-01-23T06:58:45.552Z,16.23
2023-01-23T07:01:15.772Z,15.37
2023-01-23T07:03:44.837Z,14.13
2023-01-23T07:06:12.964Z,15.73
2023-01-23T07:08:40.060Z,13.87
2023-01-23T07:11:07.227Z,16.63
2023-01-23T07:13:34.690Z,12.90
2023-01-23T07:16:01.779Z,15.20
2023-01-23T07:18:30.356Z,14.27
2023-01-23T07:20:57.547Z,14.57
2023-01-23T07:23:24.523Z,15.97
2023-01-23T07:25:51.303Z,15.93
2023-01-23T07:28:17.956Z,17.07
2023-01-23T07:30:45.463Z,12.90
2023-01-23T07:33:12.587Z,14.83
2023-01-23T07:35:39.806Z,14.00
2023-01-23T07:38:06.509Z,13.53
2023-01-23T07:40:33.364Z,13.70
2023-01-23T07:43:00.101Z,13.67
2023-01-23T07:45:26.957Z,16.40
2023-01-23T07:47:53.651Z,16.53
2023-01-23T07:50:20.777Z,14.77
2023-01-23T07:52:47.721Z,14.13
2023-01-23T07:55:14.495Z,18.63
2023-01-23T07:57:41.274Z,15.73
2023-01-23T08:00:10.769Z,13.83
2023-01-23T08:02:38.256Z,15.77
2023-01-23T08:05:05.399Z,15.37
2023-01-23T08:07:32.128Z,15.37
2023-01-23T08:09:58.778Z,14.87
2023-01-23T08:12:25.438Z,15.63
2023-01-23T08:14:52.116Z,17.87
2023-01-23T08:17:18.739Z,14.77
2023-01-23T08:19:45.484Z,12.77
2023-01-23T08:22:12.139Z,15.80
2023-01-23T08:24:38.844Z,14.90
2023-01-23T08:27:05.589Z,14.87
2023-01-23T08:29:32.510Z,14.63
2023-01-23T08:31:59.948Z,14.07
2023-01-23T08:34:26.835Z,13.70
2023-01-23T08:36:53.512Z,15.47
2023-01-23T08:39:20.679Z,13.50
2023-01-23T08:41:48.448Z,12.87
2023-01-23T08:44:15.453Z,13.30
2023-01-23T08:46:43.149Z,13.10
2023-01-23T08:49:11.273Z,15.10
2023-01-23T08:51:38.520Z,13.50
2023-01-23T08:54:06.065Z,14.80
2023-01-23T08:56:33.160Z,14.23
2023-01-23T08:58:59.898Z,14.17
2023-01-23T09:01:27.850Z,12.80
2023-01-23T09:03:55.072Z,14.03
2023-01-23T09:06:22.989Z,14.57
2023-01-23T09:08:49.904Z,13.57
2023-01-23T09:11:17.368Z,14.53
2023-01-23T09:13:46.217Z,14.50
2023-01-23T09:16:12.973Z,14.83
2023-01-23T09:18:39.751Z,13.53
2023-01-23T09:21:08.872Z,12.73
2023-01-23T09:23:35.740Z,13.38
2023-01-23T09:26:04.393Z,11.30
2023-01-23T09:28:31.231Z,12.77
2023-01-23T09:31:02.017Z,12.88
2023-01-23T09:33:28.843Z,12.63
2023-01-23T09:35:55.849Z,13.43
2023-01-23T09:38:22.664Z,11.30
2023-01-23T09:40:52.311Z,11.07
2023-01-23T09:43:31.511Z,11.20
2023-01-23T09:46:15.396Z,10.80
2023-01-23T09:49:11.130Z,9.93
2023-01-23T09:51:37.802Z,11.63
2023-01-23T09:54:30.301Z,12.17
2023-01-23T09:57:00.594Z,11.20
2023-01-23T09:59:53.873Z,11.70
2023-01-23T10:02:27.082Z,12.25
2023-01-23T10:04:54.656Z,8.68
2023-01-23T10:07:30.310Z,9.43
2023-01-23T10:10:34.724Z,13.70
2023-01-23T10:13:16.517Z,9.20
2023-01-23T10:16:17.364Z,9.30
2023-01-23T10:18:49.768Z,11.93
2023-01-23T10:21:35.152Z,11.27
2023-01-23T10:24:27.217Z,10.60
2023-01-23T10:26:58.193Z,12.93
2023-01-23T10:29:38.590Z,10.32
2023-01-23T10:32:23.159Z,9.18
2023-01-23T10:35:23.044Z,9.38
2023-01-23T10:37:59.686Z,10.57
2023-01-23T10:40:45.524Z,9.23
2023-01-23T10:43:20.788Z,10.68
2023-01-23T10:45:49.190Z,10.07
2023-01-23T10:48:35.013Z,9.20
2023-01-23T10:51:01.906Z,9.95
2023-01-23T10:53:28.600Z,9.73
2023-01-23T10:56:00.796Z,9.00
2023-01-23T10:58:44.791Z,8.17
2023-01-23T11:01:32.663Z,9.70
2023-01-23T11:04:21.373Z,8.67
2023-01-23T11:07:05.345Z,8.32
2023-01-23T11:09:32.767Z,10.70
2023-01-23T11:12:06.505Z,11.65
2023-01-23T11:14:33.774Z,9.18
2023-01-23T11:17:22.274Z,9.50
2023-01-23T11:19:54.497Z,10.85
2023-01-23T11:22:31.136Z,8.90
2023-01-23T11:24:58.544Z,7.95
2023-01-23T11:27:31.378Z,8.15
2023-01-23T11:30:35.957Z,10.20
2023-01-23T11:33:25.548Z,9.10
2023-01-23T11:36:02.411Z,9.67
2023-01-23T11:38:52.539Z,10.70
2023-01-23T11:41:25.979Z,9.10
2023-01-23T11:43:53.031Z,9.30
2023-01-23T11:46:25.696Z,10.02
2023-01-23T11:49:21.644Z,9.95
2023-01-23T11:51:48.510Z,8.75
2023-01-23T11:54:51.546Z,9.57
2023-01-23T11:57:39.425Z,11.90
2023-01-23T12:00:12.239Z,11.13
2023-01-23T12:02:51.079Z,8.77
2023-01-23T12:05:29.985Z,8.52
2023-01-23T12:08:19.614Z,9.80
2023-01-23T12:11:13.797Z,10.65
2023-01-23T12:14:04.529Z,10.50
2023-01-23T12:17:08.930Z,9.13
2023-01-23T12:20:02.658Z,8.20
2023-01-23T12:23:06.297Z,9.13
2023-01-23T12:25:38.321Z,9.40
2023-01-23T12:29:00.394Z,8.38
2023-01-23T12:31:34.607Z,11.88
2023-01-23T12:34:08.712Z,9.63
2023-01-23T12:37:14.104Z,9.52
2023-01-23T12:40:09.911Z,8.88
2023-01-23T12:42:53.114Z,9.43
2023-01-23T12:45:25.445Z,8.63
2023-01-23T12:47:55.770Z,8.48
2023-01-23T12:50:36.817Z,8.85
2023-01-23T12:53:12.543Z,7.70
2023-01-23T12:55:43.075Z,8.60
2023-01-23T12:58:16.059Z,8.77
2023-01-23T13:01:01.540Z,9.25
2023-01-23T13:03:55.745Z,8.85
2023-01-23T13:06:44.838Z,10.13
2023-01-23T13:09:20.874Z,9.32
2023-01-23T13:11:58.826Z,7.90
2023-01-23T13:14:39.763Z,7.82
2023-01-23T13:17:34.235Z,8.77
2023-01-23T13:20:38.344Z,10.18
2023-01-23T13:23:23.841Z,11.25
2023-01-23T13:26:14.971Z,10.52
2023-01-23T13:28:46.306Z,11.13
2023-01-23T13:31:37.663Z,9.75
2023-01-23T13:34:25.214Z,8.25
2023-01-23T13:36:53.327Z,9.20
2023-01-23T13:39:30.951Z,10.88
2023-01-23T13:42:18.842Z,9.40
2023-01-23T13:45:19.038Z,10.18
2023-01-23T14:21:57.121Z,12.18
2023-01-23T14:24:25.194Z,12.07
2023-01-23T14:27:02.546Z,15.55
2023-01-23T14:29:31.211Z,12.57
2023-01-23T14:31:58.073Z,13.10
2023-01-23T14:34:26.267Z,14.15
2023-01-23T14:37:04.339Z,12.85
2023-01-23T14:39:34.122Z,15.48
2023-01-23T14:42:02.719Z,14.23
2023-01-23T14:44:42.437Z,12.80
2023-01-23T14:47:27.309Z,14.30
2023-01-23T14:49:55.887Z,16.25
2023-01-23T14:52:26.667Z,16.03
2023-01-23T14:54:54.782Z,14.98
2023-01-23T14:57:23.881Z,14.43
2023-01-23T14:59:55.448Z,14.25
2023-01-23T15:02:31.705Z,13.63
2023-01-23T15:05:25.113Z,14.97
2023-01-23T15:07:54.936Z,14.67
2023-01-23T15:10:34.803Z,16.88
2023-01-23T15:13:12.770Z,14.53
2023-01-23T15:15:46.428Z,16.27
2023-01-23T15:18:35.731Z,15.73
2023-01-23T15:21:05.262Z,16.73
2023-01-23T15:23:37.624Z,15.87
2023-01-23T15:26:23.479Z,14.07
2023-01-23T15:29:02.394Z,15.30
2023-01-23T15:31:39.074Z,16.50
2023-01-23T15:35:06.374Z,16.40
2023-01-23T15:37:34.536Z,13.83
2023-01-23T15:40:04.519Z,16.60
2023-01-23T15:42:35.450Z,15.97
2023-01-23T15:45:03.705Z,18.43
2023-01-23T15:47:31.571Z,18.40
2023-01-23T15:50:02.876Z,14.60
2023-01-23T15:52:45.853Z,17.60
2023-01-23T15:55:14.341Z,18.90
2023-01-23T15:57:43.207Z,16.90
2023-01-23T16:00:29.436Z,15.00
2023-01-23T16:02:58.804Z,17.97
2023-01-23T16:05:36.793Z,18.20
2023-01-23T16:08:05.802Z,18.20
2023-01-23T16:10:37.016Z,18.10
2023-01-23T16:13:03.986Z,16.83
2023-01-23T16:15:35.257Z,14.52
2023-01-23T16:18:07.064Z,20.03
2023-01-23T16:20:35.214Z,16.80
2023-01-23T16:23:14.437Z,18.23
2023-01-23T16:25:44.875Z,17.77
2023-01-23T16:28:21.186Z,15.63
2023-01-23T16:30:49.698Z,16.23
2023-01-23T16:33:16.437Z,16.45
2023-01-23T16:35:44.027Z,16.57
2023-01-23T16:38:25.126Z,17.20
2023-01-23T16:40:53.637Z,17.33
2023-01-23T16:43:21.925Z,16.33
2023-01-23T16:45:55.067Z,16.27
2023-01-23T16:48:28.693Z,18.57
2023-01-23T16:51:00.109Z,17.50
2023-01-23T16:53:27.962Z,16.23
2023-01-23T16:55:56.632Z,18.80
2023-01-23T16:58:31.577Z,18.40
2023-01-23T17:01:04.681Z,17.33
2023-01-23T17:03:35.644Z,18.03
2023-01-23T17:06:42.925Z,17.93
2023-01-23T17:09:16.463Z,17.40
2023-01-23T17:12:50.139Z,16.67
2023-01-23T17:15:33.365Z,16.30
2023-01-23T17:18:01.164Z,17.27
2023-01-23T17:20:28.710Z,18.73
2023-01-23T17:22:55.719Z,18.53
2023-01-23T17:25:24.826Z,19.27
2023-01-23T17:28:11.124Z,16.67
2023-01-23T17:30:40.466Z,16.60
2023-01-23T17:33:24.271Z,19.10
2023-01-23T17:35:52.378Z,18.07
2023-01-23T17:38:27.627Z,19.13
2023-01-23T17:40:54.418Z,19.27
2023-01-23T17:43:21.746Z,18.50
2023-01-23T17:45:51.000Z,19.20
2023-01-23T17:48:25.163Z,20.07
2023-01-23T17:50:52.068Z,19.33
2023-01-23T17:53:19.427Z,18.27
2023-01-23T17:55:48.952Z,19.37
2023-01-23T17:58:16.039Z,19.60
2023-01-23T18:00:44.445Z,20.83
2023-01-23T18:03:17.642Z,21.77
2023-01-23T18:05:44.345Z,22.30
2023-01-23T18:08:19.960Z,18.80
2023-01-23T18:10:48.690Z,18.97
2023-01-23T18:13:49.252Z,20.50
2023-01-23T18:16:27.305Z,20.57
2023-01-23T18:19:23.983Z,22.67
2023-01-23T18:21:53.458Z,21.80
2023-01-23T18:24:27.558Z,19.83
2023-01-23T18:27:25.313Z,23.40
2023-01-23T18:30:01.226Z,22.83
2023-01-23T18:32:42.979Z,19.67
2023-01-23T18:35:30.859Z,20.00
2023-01-23T18:38:19.502Z,23.60
2023-01-23T18:41:14.846Z,22.10
2023-01-23T18:43:46.486Z,22.40
2023-01-23T18:46:22.142Z,19.10
2023-01-23T18:48:49.731Z,22.30
2023-01-23T18:51:45.528Z,21.90
2023-01-23T18:54:46.973Z,21.73
2023-01-23T18:57:35.221Z,22.77
2023-01-23T19:00:20.200Z,20.87
2023-01-23T19:02:52.138Z,20.13
2023-01-23T19:05:34.450Z,21.70
2023-01-23T19:08:02.376Z,20.43
2023-01-23T19:10:46.729Z,22.73
2023-01-23T19:13:43.790Z,24.07
2023-01-23T19:16:17.115Z,26.73
2023-01-23T19:19:16.194Z,22.37
2023-01-23T19:21:45.366Z,21.67
2023-01-23T19:24:12.585Z,23.60
2023-01-23T19:26:41.930Z,21.13
2023-01-23T19:29:21.470Z,20.77
2023-01-23T19:32:04.236Z,23.03
2023-01-23T19:34:33.482Z,22.90
2023-01-23T19:37:00.303Z,22.53
2023-01-23T19:39:27.115Z,21.37
2023-01-23T19:41:54.272Z,24.60
2023-01-23T19:44:24.341Z,23.17
2023-01-23T19:46:52.281Z,20.40
2023-01-23T19:49:19.183Z,22.60
2023-01-23T19:51:46.037Z,20.70
2023-01-23T19:54:14.386Z,20.33
2023-01-23T19:56:42.275Z,18.63
2023-01-23T19:59:09.477Z,24.40
2023-01-23T20:01:41.149Z,21.30
2023-01-23T20:04:12.909Z,21.13
2023-01-23T20:06:40.774Z,21.20
2023-01-23T20:09:08.242Z,20.03
2023-01-23T20:11:37.647Z,21.20
2023-01-23T20:14:04.704Z,19.23
2023-01-23T20:16:31.639Z,24.15
2023-01-23T20:18:58.547Z,19.70
2023-01-23T20:21:25.811Z,21.80
2023-01-23T20:23:52.829Z,21.67
2023-01-23T20:26:20.866Z,22.07
2023-01-23T20:28:49.506Z,20.70
2023-01-23T20:31:16.999Z,21.13
2023-01-23T20:33:43.869Z,21.87
2023-01-23T20:36:11.510Z,21.47
2023-01-23T20:38:39.475Z,20.60
2023-01-23T20:41:09.033Z,21.53
2023-01-23T20:43:36.171Z,20.43
2023-01-23T20:46:06.303Z,20.37
2023-01-23T20:48:40.486Z,21.17
2023-01-23T20:51:09.687Z,21.27
2023-01-23T20:53:39.448Z,22.53
2023-01-23T20:56:17.778Z,20.87
2023-01-23T20:59:08.255Z,19.53
2023-01-23T21:01:56.396Z,22.33
2023-01-23T21:04:26.342Z,22.00
2023-01-23T21:07:09.904Z,18.50
2023-01-23T21:09:36.915Z,21.73
2023-01-23T21:12:04.103Z,22.13
2023-01-23T21:14:31.478Z,21.57
2023-01-23T21:16:58.350Z,22.03
2023-01-23T21:19:25.055Z,20.87
2023-01-23T21:21:51.717Z,19.83
2023-01-23T21:24:18.751Z,22.60
2023-01-23T21:26:45.876Z,19.83
2023-01-23T21:29:12.578Z,20.00
2023-01-23T21:31:40.291Z,21.50
2023-01-23T21:34:10.241Z,21.27
2023-01-23T21:36:38.208Z,22.27
2023-01-23T21:39:07.558Z,21.40
2023-01-23T21:41:35.303Z,20.43
2023-01-23T21:44:02.020Z,20.77
2023-01-23T21:46:29.357Z,20.10
2023-01-23T21:48:56.094Z,19.10
2023-01-23T21:51:25.260Z,20.47
2023-01-23T21:53:52.058Z,22.20
2023-01-23T21:56:20.843Z,22.03
2023-01-23T21:58:48.171Z,21.53
2023-01-23T22:01:33.851Z,19.50
2023-01-23T22:04:03.508Z,19.33
2023-01-23T22:06:31.530Z,20.00
2023-01-23T22:11:39.395Z,19.93
2023-01-23T22:14:06.123Z,21.97
2023-01-23T22:16:47.410Z,20.60
2023-01-23T22:19:18.125Z,20.47
2023-01-23T22:21:46.459Z,22.50
2023-01-23T22:24:14.137Z,19.83
2023-01-23T22:26:40.886Z,23.97
2023-01-23T22:29:08.462Z,22.90
2023-01-23T22:31:35.279Z,23.23
2023-01-23T22:34:02.034Z,21.67
2023-01-23T22:36:28.833Z,23.07
2023-01-23T22:38:56.481Z,20.57
2023-01-23T22:41:24.047Z,25.47
2023-01-23T22:43:54.892Z,18.57
2023-01-23T22:46:22.521Z,21.87
2023-01-23T22:48:49.513Z,21.33
2023-01-23T22:51:24.220Z,23.13
2023-01-23T22:53:52.429Z,21.50
2023-01-23T22:56:19.199Z,21.63
2023-01-23T22:58:50.094Z,22.80
2023-01-23T23:01:17.909Z,20.47
2023-01-23T23:03:45.127Z,19.30
2023-01-23T23:06:13.952Z,22.17
2023-01-23T23:08:41.130Z,20.53
2023-01-23T23:11:14.385Z,19.77
2023-01-23T23:13:41.480Z,21.70
2023-01-23T23:16:19.762Z,20.90
2023-01-23T23:18:48.407Z,21.63
2023-01-23T23:21:18.949Z,19.43
2023-01-23T23:23:46.207Z,21.93
2023-01-23T23:26:13.924Z,20.93
2023-01-23T23:28:41.417Z,21.13
2023-01-23T23:31:09.036Z,22.20
2023-01-23T23:33:36.865Z,21.43
2023-01-23T23:36:03.837Z,21.50
2023-01-23T23:38:30.530Z,22.87
2023-01-23T23:41:00.074Z,20.23
2023-01-23T23:43:27.260Z,22.73
2023-01-23T23:45:56.258Z,22.80
2023-01-23T23:48:23.880Z,20.97
2023-01-23T23:50:50.974Z,21.90
2023-01-23T23:53:18.280Z,21.67
2023-01-23T23:55:45.628Z,21.13
2023-01-23T23:58:12.450Z,21.87
